الصفحة الرئيسية
METAR-TAF:

METAR-TAF

مطار :

عسلوية, إيران

دائرة عرض: 27-22-46N, خط طول: 52-44-15E, ارتفاع: 8 متر

مراقبة الطقس الحالي

تاريخ ووقت الإصدار 34 دقيقة قبل الساعة 09:00UTC
ريح 14 عقدة من الغرب/الشمال الغربي
درجة الحرارة 38°درجة مئوية
الرطوبة 40%
ضغط 998 hPa
الرؤية 10 كم أو أكثر
الغيوم لا تقل 1500 م ولا وجود لمزنة ركامية السحاب الأسود

METAR: OIBP 140900Z 29014KT CAVOK 38/22 Q0997 A2946

زمن: 14:04 (09:34 UTC)

توقعات

تاريخ ووقت الإصدار 1ساعة و 34 دقيقة قبل الساعة 08:00UTC
التوقعات صالحة من14 الساعة 09 UTC إلى 14 الساعة 18 UTC
ريح 12 عقدة من الغرب/الشمال الغربي
الرؤية: 7000 متر
مؤقت
من 14 الساعة 09 UTC إلى 14 الساعة 14 UTC
ريح 20 عقدة من الغرب/الشمال الغربي
الرؤية: 5000 متر

TAF: OIBP 140800Z 1409/1418 30012KT 7000 NSC TEMPO 1409/1414 29020KT 5000 SA/DU

أرصاد الطقس والتوقعات من أكثر من 4000 مطار (تقارير الطقس للمطار METAR والتنبؤ بالطقس بالمطارTAF).

المحطات المتاحة هي النقط الصفراء والحمراء على الخريطة.

حرك المؤشر فوق النقطة لمعرفة اسم المحطة.

ثم انقر لمعرفة أرصاد وتوقعات الطقس.

لتغيير الخارطة: اضغط على الأزرار الخضراء مع رمز الصليب الأسود للتكبير. على الزر الأخضر مع شرطة للتصغير، أو على الأسهم الخضراء للخرائط المجاورة.


METAR-TAF: